Time;durP1;ratioP1;P1;durP2;ratioP2;P2;SDS_P1;SDS_P2;PMS_P1;PMS_P2;Temp;Humidity;BMP_temperature;BMP_pressure;BME280_temperature;BME280_humidity;BME280_pressure;Samples;Min_cycle;Max_cycle;Signal;HPM_P1;HPM_P2
2023/09/25 00:00:50;;;;;;;5.00;1.70;;;14.70;67.50;;;;;;4952546;28;20732;-85
2023/09/25 00:03:17;;;;;;;4.03;1.58;;;14.60;67.60;;;;;;4968570;28;20247;-85
2023/09/25 00:05:47;;;;;;;4.88;1.80;;;14.60;67.70;;;;;;4952732;28;20142;-85
2023/09/25 00:08:14;;;;;;;4.13;1.80;;;14.60;67.80;;;;;;4951944;28;20051;-85
2023/09/25 00:10:41;;;;;;;4.68;1.52;;;14.50;67.90;;;;;;4965173;28;20078;-85
2023/09/25 00:13:09;;;;;;;4.30;1.70;;;14.50;67.90;;;;;;4927046;28;20458;-85
2023/09/25 00:15:41;;;;;;;3.63;1.70;;;14.50;68.00;;;;;;4952635;28;20273;-85
2023/09/25 00:18:08;;;;;;;4.50;1.67;;;14.50;67.90;;;;;;4951843;28;20056;-85
2023/09/25 00:20:35;;;;;;;4.45;1.40;;;14.40;68.10;;;;;;4952721;28;20549;-85
2023/09/25 00:23:03;;;;;;;4.72;1.50;;;14.40;68.20;;;;;;4949311;28;20062;-85
2023/09/25 00:25:31;;;;;;;4.17;1.70;;;14.40;68.40;;;;;;4941861;28;20051;-85
2023/09/25 00:27:59;;;;;;;4.57;1.80;;;14.30;68.40;;;;;;4936363;28;20693;-85
2023/09/25 00:30:26;;;;;;;4.93;1.60;;;14.30;68.50;;;;;;4952372;28;20163;-85
2023/09/25 00:32:55;;;;;;;4.82;1.95;;;14.30;68.70;;;;;;4952494;28;20142;-85
2023/09/25 00:35:25;;;;;;;6.45;2.15;;;14.30;68.60;;;;;;4952273;28;20057;-85
2023/09/25 00:37:52;;;;;;;4.57;1.93;;;14.30;68.70;;;;;;4968998;28;20062;-85
2023/09/25 00:40:24;;;;;;;4.32;1.77;;;14.30;68.70;;;;;;4954048;28;20283;-85
2023/09/25 00:42:54;;;;;;;4.13;1.90;;;14.30;68.80;;;;;;4936616;28;20052;-85
2023/09/25 00:45:21;;;;;;;4.50;2.15;;;14.20;68.90;;;;;;4937159;28;20059;-85
2023/09/25 00:47:51;;;;;;;4.13;1.90;;;14.20;68.90;;;;;;4971161;28;20044;-85
2023/09/25 00:50:18;;;;;;;4.07;2.00;;;14.20;68.90;;;;;;4971365;28;20050;-85
2023/09/25 00:52:46;;;;;;;4.10;1.80;;;14.20;69.00;;;;;;4955451;28;20737;-85
2023/09/25 00:55:14;;;;;;;4.65;2.10;;;14.10;69.10;;;;;;4956050;28;20059;-85
2023/09/25 00:57:43;;;;;;;5.35;2.05;;;14.10;69.30;;;;;;4937876;28;20421;-85
2023/09/25 01:00:12;;;;;;;4.57;2.30;;;14.10;69.20;;;;;;4939015;28;20051;-85
2023/09/25 01:02:42;;;;;;;5.23;2.30;;;14.10;69.40;;;;;;4939301;28;20549;-85
2023/09/25 01:05:11;;;;;;;4.00;1.92;;;14.10;69.40;;;;;;4955217;28;20374;-85
2023/09/25 01:07:39;;;;;;;4.55;2.20;;;14.10;69.40;;;;;;4961712;28;20048;-85
2023/09/25 01:10:14;;;;;;;4.47;2.15;;;14.00;69.60;;;;;;4936038;28;20091;-85
2023/09/25 01:12:44;;;;;;;5.45;2.15;;;14.00;69.80;;;;;;4950844;28;20107;-85
2023/09/25 01:15:12;;;;;;;3.70;1.80;;;13.90;69.90;;;;;;4919364;28;20146;-85
2023/09/25 01:17:40;;;;;;;4.78;1.92;;;13.90;70.10;;;;;;4953027;28;20741;-85
2023/09/25 01:20:11;;;;;;;4.38;1.90;;;13.90;70.00;;;;;;4954588;28;20665;-85
2023/09/25 01:22:39;;;;;;;5.03;1.90;;;13.90;70.20;;;;;;4954819;28;20056;-85
2023/09/25 01:25:10;;;;;;;5.20;2.05;;;13.90;70.30;;;;;;4968298;28;20137;-85
2023/09/25 01:27:37;;;;;;;6.13;2.10;;;13.90;70.30;;;;;;4957211;28;20437;-85
2023/09/25 01:30:06;;;;;;;4.00;1.90;;;13.90;70.50;;;;;;4955129;28;20294;-85
2023/09/25 01:32:33;;;;;;;4.70;1.90;;;13.90;70.50;;;;;;4956478;28;20051;-85
2023/09/25 01:35:02;;;;;;;4.63;2.10;;;13.90;70.60;;;;;;4970791;28;20071;-85
2023/09/25 01:37:30;;;;;;;4.95;2.10;;;13.80;70.60;;;;;;4968298;28;20052;-85
2023/09/25 01:39:59;;;;;;;4.13;1.80;;;13.80;70.70;;;;;;4954331;28;20051;-85
2023/09/25 01:42:27;;;;;;;3.70;1.77;;;13.80;70.70;;;;;;4955028;28;20349;-85
2023/09/25 01:44:54;;;;;;;5.03;1.83;;;13.80;70.70;;;;;;4954868;28;20055;-85
2023/09/25 01:47:20;;;;;;;3.80;2.05;;;13.70;70.90;;;;;;4954814;28;20698;-85
2023/09/25 01:49:49;;;;;;;5.15;2.00;;;13.70;70.90;;;;;;4947414;28;20554;-85
2023/09/25 01:52:17;;;;;;;4.97;1.90;;;13.70;70.90;;;;;;4938164;28;20055;-85
2023/09/25 01:54:46;;;;;;;4.38;1.88;;;13.70;71.00;;;;;;4955011;28;20256;-85
2023/09/25 01:57:14;;;;;;;5.22;1.90;;;13.70;71.10;;;;;;4954471;28;20056;-85
2023/09/25 01:59:42;;;;;;;4.78;2.10;;;13.70;71.10;;;;;;4954968;28;20657;-85
2023/09/25 02:02:12;;;;;;;4.10;2.00;;;13.70;71.10;;;;;;4955069;28;20764;-84
2023/09/25 02:04:39;;;;;;;5.13;2.00;;;13.70;71.10;;;;;;4955115;28;20091;-85
2023/09/25 02:07:07;;;;;;;4.15;1.90;;;13.70;71.10;;;;;;4956656;28;20263;-84
2023/09/25 02:09:34;;;;;;;4.38;1.67;;;13.70;71.20;;;;;;4970661;28;20059;-86
2023/09/25 02:12:01;;;;;;;4.75;1.80;;;13.70;71.10;;;;;;4954576;28;20095;-85
2023/09/25 02:14:32;;;;;;;4.57;2.10;;;13.70;71.20;;;;;;4951272;28;20059;-85
2023/09/25 02:17:00;;;;;;;4.97;1.90;;;13.70;71.30;;;;;;4918797;28;20048;-85
2023/09/25 02:19:28;;;;;;;5.05;2.08;;;13.60;71.40;;;;;;4953493;28;20722;-85
2023/09/25 02:21:56;;;;;;;4.32;1.98;;;13.60;71.40;;;;;;4954218;28;20067;-85
2023/09/25 02:24:23;;;;;;;5.45;2.03;;;13.70;71.30;;;;;;4941770;28;20047;-85
2023/09/25 02:26:50;;;;;;;6.18;2.13;;;13.60;71.50;;;;;;4970368;28;20517;-85
2023/09/25 02:29:20;;;;;;;4.90;1.90;;;13.60;71.50;;;;;;4967432;28;20051;-85
2023/09/25 02:31:48;;;;;;;4.70;1.80;;;13.60;71.50;;;;;;4953738;28;20278;-85
2023/09/25 02:34:16;;;;;;;5.88;2.28;;;13.60;71.60;;;;;;4966709;28;20051;-85
2023/09/25 02:36:43;;;;;;;4.18;1.83;;;13.60;71.50;;;;;;4950546;28;20087;-85
2023/09/25 02:39:10;;;;;;;4.78;1.70;;;13.60;71.70;;;;;;4935193;28;20520;-85
2023/09/25 02:41:37;;;;;;;5.37;2.30;;;13.50;71.70;;;;;;4933809;28;20489;-85
2023/09/25 02:44:06;;;;;;;4.38;2.33;;;13.50;71.80;;;;;;4934574;28;20713;-85
2023/09/25 02:46:33;;;;;;;4.25;2.25;;;13.50;71.80;;;;;;4934551;28;20531;-85
2023/09/25 02:49:02;;;;;;;5.63;2.50;;;13.50;71.90;;;;;;4936512;28;20114;-85
2023/09/25 02:51:28;;;;;;;3.80;2.08;;;13.50;71.90;;;;;;4956408;28;20058;-85
2023/09/25 02:53:55;;;;;;;7.03;2.40;;;13.50;72.00;;;;;;4969721;28;20051;-85
2023/09/25 02:56:22;;;;;;;4.40;2.05;;;13.50;71.90;;;;;;4953732;28;20331;-85
2023/09/25 02:58:52;;;;;;;4.60;2.28;;;13.50;72.00;;;;;;4952344;28;20082;-85
2023/09/25 03:01:19;;;;;;;7.18;2.20;;;13.50;72.10;;;;;;4953138;28;20062;-85
2023/09/25 03:03:46;;;;;;;3.80;2.10;;;13.40;72.20;;;;;;4953412;28;20059;-85
2023/09/25 03:06:15;;;;;;;4.00;2.10;;;13.40;72.20;;;;;;4954253;28;20150;-85
2023/09/25 03:08:42;;;;;;;5.82;2.30;;;13.40;72.20;;;;;;4969713;28;20293;-84
2023/09/25 03:11:10;;;;;;;4.45;2.10;;;13.30;72.20;;;;;;4968889;28;20455;-85
2023/09/25 03:13:39;;;;;;;6.05;2.08;;;13.30;72.30;;;;;;4967187;28;20426;-85
2023/09/25 03:16:14;;;;;;;4.80;2.03;;;13.30;72.30;;;;;;4952548;28;20054;-85
2023/09/25 03:18:42;;;;;;;4.80;2.20;;;13.30;72.40;;;;;;4952946;28;20065;-85
2023/09/25 03:21:10;;;;;;;5.93;2.30;;;13.30;72.40;;;;;;4969042;28;20275;-85
2023/09/25 03:23:39;;;;;;;5.68;2.22;;;13.30;72.50;;;;;;4954540;28;20576;-85
2023/09/25 03:26:14;;;;;;;4.97;2.30;;;13.30;72.50;;;;;;4988258;28;20128;-85
2023/09/25 03:28:41;;;;;;;4.68;2.13;;;13.30;72.50;;;;;;4951185;28;20569;-85
2023/09/25 03:31:08;;;;;;;4.80;2.10;;;13.20;72.60;;;;;;4936759;28;20051;-85
2023/09/25 03:33:37;;;;;;;4.30;2.25;;;13.20;72.70;;;;;;4948648;28;20268;-85
2023/09/25 03:36:06;;;;;;;5.40;2.30;;;13.20;72.80;;;;;;4918330;28;20055;-85
2023/09/25 03:38:37;;;;;;;5.88;2.30;;;13.20;72.80;;;;;;4936775;28;20445;-85
2023/09/25 03:41:06;;;;;;;5.03;2.20;;;13.10;72.70;;;;;;4952860;28;20058;-85
2023/09/25 03:43:33;;;;;;;5.13;2.20;;;13.10;72.80;;;;;;4952883;28;20055;-85
2023/09/25 03:46:02;;;;;;;5.05;2.13;;;13.10;72.90;;;;;;4953021;28;20264;-85
2023/09/25 03:48:29;;;;;;;5.38;2.42;;;13.10;73.00;;;;;;4952094;28;20166;-85
2023/09/25 03:50:56;;;;;;;4.82;2.45;;;13.10;72.80;;;;;;4960975;28;20779;-85
2023/09/25 03:53:23;;;;;;;4.55;2.33;;;13.10;72.90;;;;;;4968329;28;20751;-85
2023/09/25 03:55:50;;;;;;;4.77;2.20;;;13.10;72.90;;;;;;4952442;28;20510;-85
2023/09/25 03:58:18;;;;;;;5.40;2.20;;;13.10;73.00;;;;;;4952378;28;20287;-85
2023/09/25 04:00:45;;;;;;;4.57;2.20;;;13.10;73.00;;;;;;4952219;28;20528;-85
2023/09/25 04:03:13;;;;;;;5.03;2.42;;;13.10;73.10;;;;;;4952850;28;20045;-85
2023/09/25 04:05:40;;;;;;;5.85;2.40;;;13.10;73.00;;;;;;4968770;28;20051;-85
2023/09/25 04:08:06;;;;;;;4.93;2.40;;;13.10;73.10;;;;;;4977081;28;20050;-85
2023/09/25 04:10:33;;;;;;;5.80;2.35;;;13.10;73.10;;;;;;4979308;28;20342;-85
2023/09/25 04:13:01;;;;;;;5.25;2.28;;;13.10;73.10;;;;;;4969878;28;20066;-85
2023/09/25 04:15:31;;;;;;;4.38;2.40;;;13.10;73.20;;;;;;4971630;28;20059;-85
2023/09/25 04:17:58;;;;;;;4.63;2.30;;;13.10;73.20;;;;;;4955702;28;20083;-85
2023/09/25 04:20:25;;;;;;;5.47;2.57;;;13.10;73.30;;;;;;4940295;28;20576;-85
2023/09/25 04:22:53;;;;;;;5.45;2.40;;;13.10;73.20;;;;;;4972105;28;20287;-85
2023/09/25 04:25:21;;;;;;;5.57;2.33;;;13.10;73.40;;;;;;4967520;28;20052;-85
2023/09/25 04:27:50;;;;;;;5.78;2.47;;;13.10;73.30;;;;;;4920752;28;20052;-85
2023/09/25 04:30:19;;;;;;;4.97;2.30;;;13.10;73.40;;;;;;4954351;28;20123;-85
2023/09/25 04:32:49;;;;;;;5.67;2.67;;;13.10;73.50;;;;;;4957839;28;20509;-85
2023/09/25 04:35:18;;;;;;;4.75;2.63;;;13.10;73.40;;;;;;4965659;28;20372;-85
2023/09/25 04:37:44;;;;;;;5.25;2.30;;;13.10;73.40;;;;;;4936173;28;20056;-85
2023/09/25 04:40:22;;;;;;;5.43;2.30;;;13.00;73.50;;;;;;4920239;28;20156;-85
2023/09/25 04:42:50;;;;;;;5.43;2.45;;;13.10;73.60;;;;;;4960121;28;20715;-85
2023/09/25 04:45:19;;;;;;;4.87;2.50;;;13.00;73.60;;;;;;4971833;28;20067;-85
2023/09/25 04:47:47;;;;;;;6.40;2.35;;;13.00;73.70;;;;;;4976589;28;20299;-85
2023/09/25 04:50:16;;;;;;;6.20;2.70;;;13.00;73.80;;;;;;4952123;28;20055;-85
2023/09/25 04:52:45;;;;;;;5.32;2.53;;;13.00;73.70;;;;;;4932395;28;20047;-85
2023/09/25 04:55:14;;;;;;;5.13;2.55;;;13.00;73.70;;;;;;4971424;28;20047;-85
2023/09/25 04:57:42;;;;;;;5.17;2.60;;;13.00;73.70;;;;;;4951475;28;20609;-85
2023/09/25 05:00:16;;;;;;;5.47;2.60;;;13.00;73.80;;;;;;4963865;28;20261;-85
2023/09/25 05:02:45;;;;;;;5.72;2.65;;;13.00;73.80;;;;;;4948189;28;20067;-85
2023/09/25 05:05:15;;;;;;;4.78;2.45;;;13.00;73.80;;;;;;4955220;28;20051;-85
2023/09/25 05:07:43;;;;;;;6.25;2.80;;;13.00;73.70;;;;;;4954875;28;20047;-85
2023/09/25 05:10:14;;;;;;;5.53;2.53;;;13.00;73.70;;;;;;4987020;28;20591;-85
2023/09/25 05:12:41;;;;;;;5.78;2.30;;;13.00;73.70;;;;;;4978469;28;20750;-85
2023/09/25 05:15:09;;;;;;;6.35;2.83;;;13.00;73.70;;;;;;4970819;28;20051;-85
2023/09/25 05:17:37;;;;;;;5.53;2.55;;;13.00;73.70;;;;;;4969618;28;20086;-85
2023/09/25 05:20:10;;;;;;;6.05;2.28;;;13.00;73.60;;;;;;4954609;28;20059;-85
2023/09/25 05:22:41;;;;;;;5.47;2.47;;;13.00;73.60;;;;;;4966994;28;20199;-85
2023/09/25 05:25:11;;;;;;;5.68;2.60;;;13.00;73.60;;;;;;4959054;28;20588;-85
2023/09/25 05:27:39;;;;;;;5.13;2.50;;;13.00;73.60;;;;;;4939192;28;20055;-85
2023/09/25 05:30:09;;;;;;;4.75;2.47;;;13.00;73.50;;;;;;4954762;28;20201;-84
2023/09/25 05:32:36;;;;;;;4.68;2.25;;;13.00;73.60;;;;;;4953979;28;20051;-85
2023/09/25 05:35:04;;;;;;;5.27;2.50;;;13.00;73.50;;;;;;4954641;28;20171;-85
2023/09/25 05:37:32;;;;;;;4.78;2.42;;;13.00;73.50;;;;;;4970108;28;20644;-85
2023/09/25 05:40:01;;;;;;;5.30;2.15;;;13.00;73.50;;;;;;4938604;28;20051;-85
2023/09/25 05:42:30;;;;;;;5.50;2.03;;;13.00;73.50;;;;;;4961856;28;20047;-85
2023/09/25 05:44:57;;;;;;;5.35;2.40;;;13.00;73.40;;;;;;4954766;28;20055;-85
2023/09/25 05:47:24;;;;;;;4.50;2.03;;;13.00;73.40;;;;;;4950623;28;20055;-85
2023/09/25 05:49:52;;;;;;;6.50;2.55;;;13.00;73.40;;;;;;4919254;28;20266;-84
2023/09/25 05:52:19;;;;;;;5.45;2.10;;;13.00;73.30;;;;;;4970423;28;20059;-84
2023/09/25 05:54:46;;;;;;;4.72;2.38;;;13.00;73.20;;;;;;4938018;28;20597;-84
2023/09/25 05:57:14;;;;;;;6.90;2.40;;;13.00;73.20;;;;;;4945397;28;20206;-85
2023/09/25 05:59:41;;;;;;;4.77;2.30;;;13.00;73.20;;;;;;4946074;28;20536;-85
2023/09/25 06:02:08;;;;;;;6.25;2.15;;;13.00;73.20;;;;;;4943409;28;20768;-85
2023/09/25 06:04:36;;;;;;;6.22;2.20;;;13.00;73.20;;;;;;4963999;28;20082;-85
2023/09/25 06:07:03;;;;;;;4.63;2.28;;;13.00;73.10;;;;;;4943720;28;20166;-85
2023/09/25 06:09:31;;;;;;;4.97;2.10;;;13.00;73.10;;;;;;4948793;28;20130;-85
2023/09/25 06:11:58;;;;;;;5.73;2.80;;;13.00;73.10;;;;;;4970150;28;20059;-85
2023/09/25 06:14:27;;;;;;;5.05;2.30;;;13.00;73.10;;;;;;4953823;28;20272;-85
2023/09/25 06:16:57;;;;;;;5.50;2.38;;;13.00;73.20;;;;;;4955050;28;20143;-85
2023/09/25 06:19:24;;;;;;;7.45;2.10;;;13.10;73.20;;;;;;4937281;28;20058;-87
2023/09/25 06:21:55;;;;;;;4.70;2.20;;;13.00;73.10;;;;;;4957850;28;20047;-86
2023/09/25 06:24:22;;;;;;;5.53;2.37;;;13.00;73.20;;;;;;4937249;28;20058;-86
2023/09/25 06:26:50;;;;;;;5.30;2.03;;;13.10;73.10;;;;;;4941381;28;20854;-86
2023/09/25 06:29:17;;;;;;;4.40;1.90;;;13.10;73.20;;;;;;4941069;28;20172;-86
2023/09/25 06:31:46;;;;;;;4.72;2.40;;;13.10;73.20;;;;;;4941934;28;20047;-86
2023/09/25 06:34:13;;;;;;;4.90;2.50;;;13.10;73.20;;;;;;4952060;28;20684;-85
2023/09/25 06:36:41;;;;;;;4.60;2.30;;;13.10;73.10;;;;;;4942581;28;20540;-84
2023/09/25 06:39:09;;;;;;;5.22;2.45;;;13.10;73.20;;;;;;4917500;28;20255;-83
2023/09/25 06:41:37;;;;;;;5.78;2.65;;;13.10;73.20;;;;;;4920065;28;20085;-83
2023/09/25 06:44:06;;;;;;;5.03;2.25;;;13.10;73.20;;;;;;4918006;28;20044;-84
2023/09/25 06:46:33;;;;;;;5.70;2.42;;;13.10;73.20;;;;;;4938335;28;20565;-84
2023/09/25 06:49:02;;;;;;;5.70;2.37;;;13.20;73.10;;;;;;4953116;28;20067;-84
2023/09/25 06:51:29;;;;;;;6.07;2.50;;;13.20;73.10;;;;;;4954353;28;20270;-86
2023/09/25 06:53:56;;;;;;;5.30;2.20;;;13.30;73.00;;;;;;4952966;28;20163;-85
2023/09/25 06:56:23;;;;;;;5.75;2.50;;;13.30;73.00;;;;;;4952489;28;20126;-86
2023/09/25 06:58:51;;;;;;;5.10;2.30;;;13.30;73.10;;;;;;4951096;28;20526;-85
2023/09/25 07:01:18;;;;;;;5.13;2.33;;;13.30;73.20;;;;;;4934988;28;20067;-84
2023/09/25 07:03:46;;;;;;;5.65;2.30;;;13.30;73.00;;;;;;4938419;28;20483;-82
2023/09/25 07:06:14;;;;;;;6.28;2.30;;;13.30;73.10;;;;;;4950908;28;20085;-82
2023/09/25 07:08:41;;;;;;;5.68;2.60;;;13.40;72.90;;;;;;4951181;28;20051;-82
2023/09/25 07:11:09;;;;;;;5.82;2.40;;;13.50;72.80;;;;;;4951931;28;20115;-86
2023/09/25 07:13:36;;;;;;;5.50;2.47;;;13.50;72.80;;;;;;4952970;28;20589;-86
2023/09/25 07:16:05;;;;;;;6.55;2.55;;;13.50;72.80;;;;;;4955162;28;20787;-85
2023/09/25 07:18:33;;;;;;;5.43;2.63;;;13.50;72.80;;;;;;4968688;28;20145;-85
2023/09/25 07:21:05;;;;;;;5.97;2.40;;;13.60;72.70;;;;;;4953007;28;20114;-86
2023/09/25 07:23:33;;;;;;;6.05;2.17;;;13.60;72.60;;;;;;4952445;28;20043;-86
2023/09/25 07:26:05;;;;;;;5.30;2.43;;;13.60;72.50;;;;;;4957503;28;20142;-86
2023/09/25 07:28:32;;;;;;;5.57;2.08;;;13.70;72.30;;;;;;4966498;28;20283;-85
2023/09/25 07:31:01;;;;;;;5.95;2.50;;;13.70;72.50;;;;;;4933431;28;20150;-83
2023/09/25 07:33:29;;;;;;;4.43;2.30;;;13.70;72.30;;;;;;4923452;28;20648;-83
2023/09/25 07:35:56;;;;;;;5.68;2.30;;;13.70;72.30;;;;;;4951211;28;20150;-86
2023/09/25 07:38:24;;;;;;;4.57;2.00;;;13.80;72.30;;;;;;4935728;28;20055;-86
2023/09/25 07:40:53;;;;;;;4.50;2.10;;;13.90;72.20;;;;;;4951929;28;20264;-87
2023/09/25 07:43:20;;;;;;;6.22;2.63;;;13.90;72.20;;;;;;4950399;28;20048;-89
2023/09/25 07:45:49;;;;;;;5.00;2.20;;;13.90;72.20;;;;;;4933753;28;20487;-88
2023/09/25 07:48:17;;;;;;;6.60;2.22;;;13.90;72.10;;;;;;4963286;28;20063;-88
2023/09/25 07:50:46;;;;;;;5.03;2.23;;;13.90;72.10;;;;;;4950670;28;20051;-87
2023/09/25 07:53:14;;;;;;;4.90;2.30;;;13.90;72.10;;;;;;4945282;28;20285;-87
2023/09/25 07:55:41;;;;;;;7.07;2.50;;;14.00;71.90;;;;;;4958278;28;20502;-89
2023/09/25 07:58:11;;;;;;;5.15;2.10;;;14.00;71.80;;;;;;4961260;28;20434;-87
2023/09/25 08:00:40;;;;;;;5.80;2.15;;;14.10;71.90;;;;;;4971637;28;20087;-87
2023/09/25 08:03:08;;;;;;;6.93;2.60;;;14.10;71.90;;;;;;4955316;28;20549;-88
2023/09/25 08:05:37;;;;;;;6.57;2.40;;;14.10;72.00;;;;;;4964246;28;20381;-88
2023/09/25 08:08:05;;;;;;;4.85;2.35;;;14.20;72.10;;;;;;4962844;28;20055;-88
2023/09/25 08:10:32;;;;;;;5.50;2.30;;;14.20;72.10;;;;;;4957655;28;20054;-87
2023/09/25 08:12:59;;;;;;;5.22;2.03;;;14.30;71.80;;;;;;4921911;28;20086;-89
2023/09/25 08:15:28;;;;;;;5.13;2.20;;;14.30;71.50;;;;;;4971951;28;20055;-87
2023/09/25 08:17:58;;;;;;;5.13;1.92;;;14.40;71.40;;;;;;4971191;28;20291;-87
2023/09/25 08:20:26;;;;;;;5.28;2.20;;;14.50;71.30;;;;;;4937551;28;20055;-88
2023/09/25 08:22:53;;;;;;;5.68;2.13;;;14.50;71.00;;;;;;4935979;28;20064;-88
2023/09/25 08:25:21;;;;;;;6.45;2.13;;;14.60;70.90;;;;;;4963634;28;20095;-90
2023/09/25 08:27:51;;;;;;;6.30;2.17;;;14.60;70.80;;;;;;4932077;28;20341;-87
2023/09/25 08:30:18;;;;;;;5.00;1.75;;;14.70;70.70;;;;;;4955584;28;20255;-88
2023/09/25 08:32:49;;;;;;;4.68;1.90;;;14.70;70.50;;;;;;4955738;28;20462;-89
2023/09/25 08:35:16;;;;;;;5.30;1.95;;;14.80;70.30;;;;;;4955255;28;20585;-89
2023/09/25 08:37:43;;;;;;;5.10;1.80;;;14.80;70.20;;;;;;4939346;28;20074;-89
2023/09/25 08:40:10;;;;;;;5.83;1.90;;;14.90;70.20;;;;;;4939307;28;20055;-87
2023/09/25 08:42:38;;;;;;;5.53;1.80;;;14.90;69.80;;;;;;4941738;28;20275;-89
2023/09/25 08:45:06;;;;;;;4.28;2.00;;;15.00;69.60;;;;;;4939533;28;20058;-88
2023/09/25 08:47:34;;;;;;;4.93;1.70;;;15.00;69.70;;;;;;4937864;28;20126;-87
2023/09/25 08:50:03;;;;;;;5.90;1.88;;;15.00;69.70;;;;;;4955153;28;20051;-89
2023/09/25 08:52:31;;;;;;;6.03;1.90;;;15.20;69.60;;;;;;4951305;28;20792;-89
2023/09/25 08:55:00;;;;;;;4.53;1.85;;;15.30;69.30;;;;;;4955435;28;20248;-89
2023/09/25 08:57:30;;;;;;;5.20;1.63;;;15.30;69.10;;;;;;4971520;28;20059;-89
2023/09/25 08:59:57;;;;;;;4.35;1.67;;;15.40;68.50;;;;;;4954086;28;20133;-88
2023/09/25 09:02:23;;;;;;;5.75;1.92;;;15.50;68.20;;;;;;4958012;28;20101;-88
2023/09/25 09:04:51;;;;;;;4.93;1.70;;;15.60;68.60;;;;;;4970754;28;20057;-88
2023/09/25 09:07:19;;;;;;;4.50;1.65;;;15.60;68.20;;;;;;4975099;28;20307;-87
2023/09/25 09:09:46;;;;;;;5.80;1.60;;;15.70;68.10;;;;;;4962433;28;20065;-87
2023/09/25 09:12:13;;;;;;;4.72;1.70;;;15.80;67.80;;;;;;4935849;28;20058;-86
2023/09/25 09:14:41;;;;;;;5.30;1.70;;;15.90;67.20;;;;;;4938781;28;20611;-85
2023/09/25 09:17:11;;;;;;;4.07;1.57;;;16.00;66.60;;;;;;4947434;28;20158;-88
2023/09/25 09:19:52;;;;;;;4.78;1.77;;;16.00;66.50;;;;;;4963254;28;20476;-89
2023/09/25 09:22:21;;;;;;;5.63;1.58;;;16.10;66.80;;;;;;4967942;28;20078;-87
2023/09/25 09:24:51;;;;;;;7.85;1.67;;;16.10;66.40;;;;;;4967445;28;20139;-90
2023/09/25 09:27:20;;;;;;;5.72;1.58;;;16.20;66.10;;;;;;4940735;28;20055;-90
2023/09/25 09:29:52;;;;;;;4.47;1.50;;;16.20;66.20;;;;;;4947979;28;20118;-88
2023/09/25 09:32:19;;;;;;;4.97;1.70;;;16.30;66.20;;;;;;4934868;28;20264;-87
2023/09/25 09:34:48;;;;;;;4.47;1.50;;;16.40;66.10;;;;;;4930576;28;20207;-88
2023/09/25 09:37:15;;;;;;;4.38;1.85;;;16.40;66.30;;;;;;4945295;28;20094;-88
2023/09/25 09:39:52;;;;;;;5.53;1.52;;;16.40;66.50;;;;;;4939681;28;20062;-88
2023/09/25 09:42:21;;;;;;;5.30;1.60;;;16.50;65.90;;;;;;4949749;28;20062;-87
2023/09/25 09:44:51;;;;;;;4.85;1.55;;;16.50;65.70;;;;;;4954116;28;20283;-87
2023/09/25 09:47:24;;;;;;;5.25;1.58;;;16.60;65.80;;;;;;4934851;28;20494;-88
2023/09/25 09:49:54;;;;;;;4.22;1.60;;;16.60;66.00;;;;;;4951237;28;20055;-88
2023/09/25 09:52:21;;;;;;;4.57;1.52;;;16.70;65.60;;;;;;4936699;28;20143;-88
2023/09/25 09:54:51;;;;;;;4.53;1.57;;;16.70;65.50;;;;;;4952215;28;20760;-85
2023/09/25 09:57:21;;;;;;;5.57;1.80;;;16.80;65.40;;;;;;4961142;28;20678;-87
2023/09/25 09:59:49;;;;;;;6.78;1.80;;;16.90;65.30;;;;;;4937175;28;20069;-87
2023/09/25 10:02:17;;;;;;;4.97;1.60;;;16.90;65.00;;;;;;4970029;28;20502;-89
2023/09/25 10:04:45;;;;;;;4.75;1.60;;;17.00;65.00;;;;;;4958824;28;20059;-88
2023/09/25 10:08:03;;;;;;;6.13;1.70;;;17.00;65.20;;;;;;4945538;28;20051;-89
2023/09/25 10:10:32;;;;;;;5.57;1.98;;;17.10;64.70;;;;;;4946563;28;20259;-86
2023/09/25 10:12:59;;;;;;;5.28;1.65;;;17.20;64.40;;;;;;4951251;28;20060;-77
2023/09/25 10:15:27;;;;;;;4.65;1.88;;;17.20;64.50;;;;;;4933867;28;20222;-88
2023/09/25 10:17:56;;;;;;;5.03;1.80;;;17.30;64.20;;;;;;4946244;28;20053;-90
2023/09/25 10:20:36;;;;;;;5.93;2.00;;;17.40;64.30;;;;;;4937998;28;20111;-90
2023/09/25 10:23:09;;;;;;;5.00;1.55;;;17.40;64.00;;;;;;4943953;28;20257;-90
2023/09/25 10:25:50;;;;;;;4.20;1.65;;;17.50;64.20;;;;;;4938499;28;20146;-86
2023/09/25 10:28:17;;;;;;;5.40;2.00;;;17.50;63.40;;;;;;4954498;28;20528;-90
2023/09/25 10:30:46;;;;;;;6.63;1.70;;;17.60;63.20;;;;;;4966769;28;20059;-90
2023/09/25 10:33:13;;;;;;;5.47;1.60;;;17.60;63.30;;;;;;4971223;28;20079;-92
2023/09/25 10:35:43;;;;;;;6.28;1.77;;;17.80;63.00;;;;;;4958293;28;20299;-91
2023/09/25 10:38:12;;;;;;;4.28;1.90;;;17.80;63.50;;;;;;4953835;28;20047;-91
2023/09/25 10:40:43;;;;;;;4.18;1.63;;;17.80;63.00;;;;;;4954278;28;20050;-90
2023/09/25 10:43:13;;;;;;;4.85;1.67;;;17.90;62.70;;;;;;4953558;28;20821;-89
2023/09/25 10:45:41;;;;;;;5.20;1.80;;;18.00;62.90;;;;;;4937223;28;20141;-91
2023/09/25 10:48:08;;;;;;;5.93;1.90;;;18.00;63.20;;;;;;4952334;28;20262;-91
2023/09/25 10:50:37;;;;;;;4.78;1.60;;;18.00;63.10;;;;;;4963423;28;20051;-91
2023/09/25 10:53:06;;;;;;;4.80;1.50;;;18.00;63.40;;;;;;4935651;28;20182;-89
2023/09/25 10:55:38;;;;;;;4.72;1.48;;;18.10;63.90;;;;;;4921804;28;20150;-88
2023/09/25 10:58:10;;;;;;;4.50;1.73;;;18.20;63.40;;;;;;4944533;28;20086;-88
2023/09/25 11:00:46;;;;;;;4.85;1.58;;;18.30;63.20;;;;;;4954050;28;20258;-89
2023/09/25 11:03:15;;;;;;;4.72;1.40;;;18.30;63.60;;;;;;4953416;28;20458;-89
2023/09/25 11:05:44;;;;;;;5.88;1.40;;;18.40;62.30;;;;;;4951418;28;20051;-90
2023/09/25 11:08:15;;;;;;;5.18;1.50;;;18.50;61.40;;;;;;4959076;28;20118;-89
2023/09/25 11:10:43;;;;;;;3.73;1.30;;;18.60;60.50;;;;;;4942274;28;20174;-90
2023/09/25 11:13:10;;;;;;;3.70;1.30;;;18.60;60.80;;;;;;4930077;28;20264;-89
2023/09/25 11:15:39;;;;;;;5.38;1.42;;;18.60;60.80;;;;;;4971502;28;20138;-88
2023/09/25 11:18:09;;;;;;;4.65;1.35;;;18.70;60.30;;;;;;4954538;28;20083;-88
2023/09/25 11:20:38;;;;;;;4.43;1.50;;;18.70;60.10;;;;;;4952913;28;20086;-88
2023/09/25 11:23:09;;;;;;;4.93;1.57;;;18.80;60.20;;;;;;4951942;28;20055;-89
2023/09/25 11:25:41;;;;;;;3.75;1.52;;;18.80;60.00;;;;;;4973194;28;20296;-89
2023/09/25 11:28:13;;;;;;;3.85;1.48;;;18.80;60.10;;;;;;4955909;28;20099;-89
2023/09/25 11:30:41;;;;;;;4.43;1.50;;;18.90;60.50;;;;;;4818000;28;21327;-88
2023/09/25 11:33:13;;;;;;;4.22;1.80;;;18.90;61.20;;;;;;4983958;28;20077;-89
2023/09/25 11:35:49;;;;;;;4.80;1.60;;;19.00;60.80;;;;;;4997798;28;20056;-91
2023/09/25 11:38:21;;;;;;;5.70;1.55;;;19.10;60.80;;;;;;4983569;28;20258;-91
2023/09/25 11:40:50;;;;;;;5.93;1.70;;;19.10;60.60;;;;;;4981730;28;20058;-91
2023/09/25 11:43:17;;;;;;;3.95;1.63;;;19.20;60.00;;;;;;4980837;28;20129;-91
2023/09/25 11:45:48;;;;;;;8.07;1.77;;;19.20;60.10;;;;;;4982069;28;20054;-90
2023/09/25 11:48:18;;;;;;;4.83;1.80;;;19.20;60.10;;;;;;4996750;28;20050;-91
2023/09/25 11:50:46;;;;;;;3.80;1.50;;;19.30;59.70;;;;;;4981164;28;20309;-91
2023/09/25 11:53:13;;;;;;;5.10;1.63;;;19.30;59.70;;;;;;4997865;28;20594;-92
2023/09/25 11:55:43;;;;;;;4.45;1.58;;;19.30;60.20;;;;;;4997129;28;20059;-91
2023/09/25 11:58:11;;;;;;;3.95;1.70;;;19.40;60.90;;;;;;4980953;28;20803;-92
2023/09/25 12:00:39;;;;;;;4.53;1.60;;;19.40;60.60;;;;;;4998137;28;20101;-92
2023/09/25 12:03:11;;;;;;;5.00;1.63;;;19.50;60.10;;;;;;4979376;28;20254;-92
2023/09/25 12:05:42;;;;;;;6.28;1.80;;;19.50;60.00;;;;;;4996496;28;20162;-91
2023/09/25 12:08:12;;;;;;;4.22;1.58;;;19.60;59.60;;;;;;4997551;28;20752;-91
2023/09/25 12:10:40;;;;;;;5.28;1.50;;;19.70;59.10;;;;;;5001168;28;20070;-91
2023/09/25 12:13:15;;;;;;;4.40;1.60;;;19.70;59.30;;;;;;4998024;28;20050;-90
2023/09/25 12:15:43;;;;;;;5.00;1.73;;;19.70;59.70;;;;;;4978260;28;20394;-92
2023/09/25 12:18:17;;;;;;;5.00;1.50;;;19.80;59.70;;;;;;4980029;28;20968;-91
2023/09/25 12:20:46;;;;;;;3.97;1.52;;;19.90;59.60;;;;;;4981669;28;20138;-91
2023/09/25 12:23:17;;;;;;;4.03;1.70;;;19.90;59.70;;;;;;4996397;28;20081;-91
2023/09/25 12:25:45;;;;;;;4.20;1.70;;;20.00;59.70;;;;;;5000962;28;20042;-91
2023/09/25 12:28:14;;;;;;;5.93;2.00;;;20.00;59.00;;;;;;4980653;28;20270;-91
2023/09/25 12:30:42;;;;;;;4.15;1.70;;;20.00;58.70;;;;;;4981437;28;20121;-92
2023/09/25 12:33:18;;;;;;;5.35;1.70;;;20.10;59.00;;;;;;5010736;28;20151;-92
2023/09/25 12:35:48;;;;;;;3.72;1.58;;;20.10;58.90;;;;;;4983746;28;20487;-91
2023/09/25 12:38:17;;;;;;;5.03;1.60;;;20.10;58.90;;;;;;4983722;28;20516;-91
2023/09/25 12:40:48;;;;;;;4.18;1.70;;;20.10;59.00;;;;;;4984689;28;20254;-91
2023/09/25 12:43:17;;;;;;;4.13;1.52;;;20.20;59.10;;;;;;5012796;28;20053;-91
2023/09/25 12:45:49;;;;;;;4.05;1.70;;;20.30;59.00;;;;;;5001688;28;21017;-91
2023/09/25 12:48:23;;;;;;;4.18;1.60;;;20.30;58.20;;;;;;4997147;28;20058;-92
2023/09/25 12:50:53;;;;;;;5.40;1.40;;;20.30;58.20;;;;;;4980391;28;21044;-91
2023/09/25 12:53:22;;;;;;;4.53;1.50;;;20.30;58.20;;;;;;4996068;28;20274;-91
2023/09/25 12:55:54;;;;;;;4.57;1.60;;;20.30;58.50;;;;;;4978837;28;20145;-91